sensor_id;sensor_type;location;lat;lon;timestamp;P1;durP1;ratioP1;P2;durP2;ratioP2
13731;SDS011;6937;56.096;12.664;2022-08-19T00:00:00;11.55;;;10.55;;
13731;SDS011;6937;56.096;12.664;2022-08-19T00:02:26;12.50;;;11.40;;
13731;SDS011;6937;56.096;12.664;2022-08-19T00:04:51;11.65;;;10.45;;
13731;SDS011;6937;56.096;12.664;2022-08-19T00:07:19;10.25;;;9.38;;
13731;SDS011;6937;56.096;12.664;2022-08-19T00:09:45;10.55;;;9.77;;
13731;SDS011;6937;56.096;12.664;2022-08-19T00:12:10;10.27;;;9.38;;
13731;SDS011;6937;56.096;12.664;2022-08-19T00:14:36;10.50;;;9.70;;
13731;SDS011;6937;56.096;12.664;2022-08-19T00:17:03;11.70;;;10.60;;
13731;SDS011;6937;56.096;12.664;2022-08-19T00:19:30;12.00;;;11.00;;
13731;SDS011;6937;56.096;12.664;2022-08-19T00:21:55;12.65;;;11.65;;
13731;SDS011;6937;56.096;12.664;2022-08-19T00:24:21;12.82;;;11.63;;
13731;SDS011;6937;56.096;12.664;2022-08-19T00:26:47;13.30;;;12.20;;
13731;SDS011;6937;56.096;12.664;2022-08-19T00:29:15;12.57;;;11.57;;
13731;SDS011;6937;56.096;12.664;2022-08-19T00:31:43;12.20;;;11.25;;
13731;SDS011;6937;56.096;12.664;2022-08-19T00:34:09;14.95;;;13.73;;
13731;SDS011;6937;56.096;12.664;2022-08-19T00:36:36;13.68;;;12.02;;
13731;SDS011;6937;56.096;12.664;2022-08-19T00:39:02;13.52;;;12.15;;
13731;SDS011;6937;56.096;12.664;2022-08-19T00:41:28;13.43;;;12.30;;
13731;SDS011;6937;56.096;12.664;2022-08-19T00:44:04;13.35;;;12.35;;
13731;SDS011;6937;56.096;12.664;2022-08-19T00:46:32;14.02;;;12.82;;
13731;SDS011;6937;56.096;12.664;2022-08-19T00:49:02;13.50;;;12.40;;
13731;SDS011;6937;56.096;12.664;2022-08-19T00:51:34;14.23;;;13.13;;
13731;SDS011;6937;56.096;12.664;2022-08-19T00:53:59;13.95;;;12.82;;
13731;SDS011;6937;56.096;12.664;2022-08-19T00:56:26;13.90;;;12.82;;
13731;SDS011;6937;56.096;12.664;2022-08-19T00:58:52;15.50;;;14.30;;
13731;SDS011;6937;56.096;12.664;2022-08-19T01:01:19;14.27;;;13.18;;
13731;SDS011;6937;56.096;12.664;2022-08-19T01:03:45;13.80;;;12.60;;
13731;SDS011;6937;56.096;12.664;2022-08-19T01:06:10;15.65;;;14.35;;
13731;SDS011;6937;56.096;12.664;2022-08-19T01:08:35;16.83;;;15.40;;
13731;SDS011;6937;56.096;12.664;2022-08-19T01:11:01;15.10;;;13.85;;
13731;SDS011;6937;56.096;12.664;2022-08-19T01:13:28;15.10;;;13.90;;
13731;SDS011;6937;56.096;12.664;2022-08-19T01:16:04;16.30;;;15.02;;
13731;SDS011;6937;56.096;12.664;2022-08-19T01:18:32;15.75;;;14.32;;
13731;SDS011;6937;56.096;12.664;2022-08-19T01:21:05;16.52;;;15.25;;
13731;SDS011;6937;56.096;12.664;2022-08-19T01:23:35;18.00;;;16.58;;
13731;SDS011;6937;56.096;12.664;2022-08-19T01:26:14;15.88;;;14.68;;
13731;SDS011;6937;56.096;12.664;2022-08-19T01:28:42;16.80;;;15.40;;
13731;SDS011;6937;56.096;12.664;2022-08-19T01:31:10;17.30;;;15.85;;
13731;SDS011;6937;56.096;12.664;2022-08-19T01:33:39;15.88;;;14.65;;
13731;SDS011;6937;56.096;12.664;2022-08-19T01:36:06;16.70;;;15.50;;
13731;SDS011;6937;56.096;12.664;2022-08-19T01:38:38;16.20;;;14.90;;
13731;SDS011;6937;56.096;12.664;2022-08-19T01:41:06;17.23;;;15.73;;
13731;SDS011;6937;56.096;12.664;2022-08-19T01:43:32;17.15;;;15.65;;
13731;SDS011;6937;56.096;12.664;2022-08-19T01:45:58;16.13;;;14.80;;
13731;SDS011;6937;56.096;12.664;2022-08-19T01:48:24;15.00;;;13.90;;
13731;SDS011;6937;56.096;12.664;2022-08-19T01:50:49;18.08;;;16.45;;
13731;SDS011;6937;56.096;12.664;2022-08-19T01:53:15;17.17;;;15.65;;
13731;SDS011;6937;56.096;12.664;2022-08-19T01:55:42;16.70;;;15.40;;
13731;SDS011;6937;56.096;12.664;2022-08-19T01:58:15;16.52;;;15.13;;
13731;SDS011;6937;56.096;12.664;2022-08-19T02:00:45;16.05;;;14.75;;
13731;SDS011;6937;56.096;12.664;2022-08-19T02:03:10;16.23;;;15.02;;
13731;SDS011;6937;56.096;12.664;2022-08-19T02:05:36;16.13;;;14.85;;
13731;SDS011;6937;56.096;12.664;2022-08-19T02:08:02;16.58;;;15.30;;
13731;SDS011;6937;56.096;12.664;2022-08-19T02:10:28;17.13;;;15.63;;
13731;SDS011;6937;56.096;12.664;2022-08-19T02:12:54;17.70;;;16.10;;
13731;SDS011;6937;56.096;12.664;2022-08-19T02:15:19;18.48;;;16.88;;
13731;SDS011;6937;56.096;12.664;2022-08-19T02:17:46;16.73;;;15.32;;
13731;SDS011;6937;56.096;12.664;2022-08-19T02:20:12;17.33;;;15.88;;
13731;SDS011;6937;56.096;12.664;2022-08-19T02:22:38;16.67;;;15.27;;
13731;SDS011;6937;56.096;12.664;2022-08-19T02:25:06;16.35;;;14.88;;
13731;SDS011;6937;56.096;12.664;2022-08-19T02:27:32;16.55;;;15.10;;
13731;SDS011;6937;56.096;12.664;2022-08-19T02:29:58;15.80;;;14.50;;
13731;SDS011;6937;56.096;12.664;2022-08-19T02:32:24;16.27;;;14.82;;
13731;SDS011;6937;56.096;12.664;2022-08-19T02:34:50;16.35;;;14.93;;
13731;SDS011;6937;56.096;12.664;2022-08-19T02:37:15;16.65;;;15.25;;
13731;SDS011;6937;56.096;12.664;2022-08-19T02:39:59;15.65;;;14.45;;
13731;SDS011;6937;56.096;12.664;2022-08-19T02:42:25;16.83;;;15.32;;
13731;SDS011;6937;56.096;12.664;2022-08-19T02:44:50;16.95;;;15.65;;
13731;SDS011;6937;56.096;12.664;2022-08-19T02:47:17;15.25;;;14.05;;
13731;SDS011;6937;56.096;12.664;2022-08-19T02:49:43;15.63;;;14.38;;
13731;SDS011;6937;56.096;12.664;2022-08-19T02:52:09;15.65;;;14.45;;
13731;SDS011;6937;56.096;12.664;2022-08-19T02:54:36;15.77;;;14.52;;
13731;SDS011;6937;56.096;12.664;2022-08-19T02:57:02;15.07;;;13.88;;
13731;SDS011;6937;56.096;12.664;2022-08-19T02:59:30;14.95;;;13.68;;
13731;SDS011;6937;56.096;12.664;2022-08-19T03:01:56;16.95;;;15.45;;
13731;SDS011;6937;56.096;12.664;2022-08-19T03:04:21;17.63;;;16.13;;
13731;SDS011;6937;56.096;12.664;2022-08-19T03:06:48;16.17;;;14.88;;
13731;SDS011;6937;56.096;12.664;2022-08-19T03:09:14;17.05;;;15.27;;
13731;SDS011;6937;56.096;12.664;2022-08-19T03:11:40;17.77;;;16.17;;
13731;SDS011;6937;56.096;12.664;2022-08-19T03:14:06;17.30;;;15.88;;
13731;SDS011;6937;56.096;12.664;2022-08-19T03:16:34;18.52;;;16.30;;
13731;SDS011;6937;56.096;12.664;2022-08-19T03:19:06;19.60;;;17.92;;
13731;SDS011;6937;56.096;12.664;2022-08-19T03:21:32;16.25;;;15.05;;
13731;SDS011;6937;56.096;12.664;2022-08-19T03:24:00;16.05;;;14.73;;
13731;SDS011;6937;56.096;12.664;2022-08-19T03:26:29;16.10;;;14.77;;
13731;SDS011;6937;56.096;12.664;2022-08-19T03:28:55;15.00;;;13.73;;
13731;SDS011;6937;56.096;12.664;2022-08-19T03:31:21;15.90;;;14.65;;
13731;SDS011;6937;56.096;12.664;2022-08-19T03:33:49;14.18;;;13.07;;
13731;SDS011;6937;56.096;12.664;2022-08-19T03:36:17;14.00;;;12.90;;
13731;SDS011;6937;56.096;12.664;2022-08-19T03:38:52;13.20;;;12.20;;
13731;SDS011;6937;56.096;12.664;2022-08-19T03:41:21;13.32;;;12.13;;
13731;SDS011;6937;56.096;12.664;2022-08-19T03:43:49;14.60;;;13.50;;
13731;SDS011;6937;56.096;12.664;2022-08-19T03:46:18;15.57;;;14.27;;
13731;SDS011;6937;56.096;12.664;2022-08-19T03:48:47;14.32;;;13.25;;
13731;SDS011;6937;56.096;12.664;2022-08-19T03:51:17;12.65;;;11.75;;
13731;SDS011;6937;56.096;12.664;2022-08-19T03:53:45;12.35;;;11.35;;
13731;SDS011;6937;56.096;12.664;2022-08-19T03:56:11;13.15;;;12.07;;
13731;SDS011;6937;56.096;12.664;2022-08-19T03:58:38;12.82;;;11.77;;
13731;SDS011;6937;56.096;12.664;2022-08-19T04:01:07;12.50;;;11.60;;
13731;SDS011;6937;56.096;12.664;2022-08-19T04:03:35;12.38;;;11.48;;
13731;SDS011;6937;56.096;12.664;2022-08-19T04:06:23;14.82;;;13.55;;
13731;SDS011;6937;56.096;12.664;2022-08-19T04:08:52;13.45;;;12.45;;
13731;SDS011;6937;56.096;12.664;2022-08-19T04:11:21;13.60;;;12.60;;
13731;SDS011;6937;56.096;12.664;2022-08-19T04:13:48;15.10;;;13.82;;
13731;SDS011;6937;56.096;12.664;2022-08-19T04:16:16;15.73;;;14.52;;
13731;SDS011;6937;56.096;12.664;2022-08-19T04:18:42;15.80;;;14.68;;
13731;SDS011;6937;56.096;12.664;2022-08-19T04:21:08;16.25;;;14.85;;
13731;SDS011;6937;56.096;12.664;2022-08-19T04:23:44;15.35;;;14.25;;
13731;SDS011;6937;56.096;12.664;2022-08-19T04:26:18;14.88;;;13.68;;
13731;SDS011;6937;56.096;12.664;2022-08-19T04:28:46;15.57;;;14.25;;
13731;SDS011;6937;56.096;12.664;2022-08-19T04:31:16;17.52;;;16.10;;
13731;SDS011;6937;56.096;12.664;2022-08-19T04:33:45;16.98;;;15.68;;
13731;SDS011;6937;56.096;12.664;2022-08-19T04:36:18;19.35;;;17.52;;
13731;SDS011;6937;56.096;12.664;2022-08-19T04:38:49;17.42;;;15.90;;
13731;SDS011;6937;56.096;12.664;2022-08-19T04:41:17;17.30;;;16.00;;
13731;SDS011;6937;56.096;12.664;2022-08-19T04:44:02;16.98;;;15.70;;
13731;SDS011;6937;56.096;12.664;2022-08-19T04:46:29;17.02;;;15.65;;
13731;SDS011;6937;56.096;12.664;2022-08-19T04:48:57;17.15;;;15.55;;
13731;SDS011;6937;56.096;12.664;2022-08-19T04:51:23;17.15;;;15.73;;
13731;SDS011;6937;56.096;12.664;2022-08-19T04:53:49;18.48;;;16.77;;
13731;SDS011;6937;56.096;12.664;2022-08-19T04:56:16;17.00;;;15.63;;
13731;SDS011;6937;56.096;12.664;2022-08-19T04:58:42;17.48;;;16.00;;
13731;SDS011;6937;56.096;12.664;2022-08-19T05:01:11;18.40;;;17.00;;
13731;SDS011;6937;56.096;12.664;2022-08-19T05:03:43;20.13;;;18.42;;
13731;SDS011;6937;56.096;12.664;2022-08-19T05:06:10;20.98;;;19.38;;
13731;SDS011;6937;56.096;12.664;2022-08-19T05:08:39;22.05;;;20.15;;
13731;SDS011;6937;56.096;12.664;2022-08-19T05:11:18;23.30;;;21.50;;
13731;SDS011;6937;56.096;12.664;2022-08-19T05:13:46;24.13;;;22.25;;
13731;SDS011;6937;56.096;12.664;2022-08-19T05:16:14;23.30;;;21.23;;
13731;SDS011;6937;56.096;12.664;2022-08-19T05:18:42;22.38;;;20.58;;
13731;SDS011;6937;56.096;12.664;2022-08-19T05:21:26;21.05;;;19.45;;
13731;SDS011;6937;56.096;12.664;2022-08-19T05:24:11;17.77;;;16.33;;
13731;SDS011;6937;56.096;12.664;2022-08-19T05:26:39;20.27;;;18.70;;
13731;SDS011;6937;56.096;12.664;2022-08-19T05:29:07;18.27;;;16.65;;
13731;SDS011;6937;56.096;12.664;2022-08-19T05:31:33;18.80;;;17.35;;
13731;SDS011;6937;56.096;12.664;2022-08-19T05:34:00;19.20;;;17.65;;
13731;SDS011;6937;56.096;12.664;2022-08-19T05:36:27;17.85;;;16.45;;
13731;SDS011;6937;56.096;12.664;2022-08-19T05:38:53;18.23;;;16.48;;
13731;SDS011;6937;56.096;12.664;2022-08-19T05:41:20;16.05;;;14.95;;
13731;SDS011;6937;56.096;12.664;2022-08-19T05:43:54;15.65;;;14.45;;
13731;SDS011;6937;56.096;12.664;2022-08-19T05:46:21;15.35;;;14.05;;
13731;SDS011;6937;56.096;12.664;2022-08-19T05:48:47;16.25;;;14.85;;
13731;SDS011;6937;56.096;12.664;2022-08-19T05:51:13;17.30;;;15.77;;
13731;SDS011;6937;56.096;12.664;2022-08-19T05:53:41;15.85;;;14.65;;
13731;SDS011;6937;56.096;12.664;2022-08-19T05:56:07;15.95;;;14.55;;
13731;SDS011;6937;56.096;12.664;2022-08-19T05:58:35;13.30;;;12.30;;
13731;SDS011;6937;56.096;12.664;2022-08-19T06:01:03;13.30;;;12.32;;
13731;SDS011;6937;56.096;12.664;2022-08-19T06:03:35;12.98;;;12.07;;
13731;SDS011;6937;56.096;12.664;2022-08-19T06:06:02;14.35;;;13.30;;
13731;SDS011;6937;56.096;12.664;2022-08-19T06:08:30;12.75;;;11.88;;
13731;SDS011;6937;56.096;12.664;2022-08-19T06:10:55;11.80;;;10.90;;
13731;SDS011;6937;56.096;12.664;2022-08-19T06:13:21;13.63;;;12.38;;
13731;SDS011;6937;56.096;12.664;2022-08-19T06:15:47;11.23;;;10.52;;
13731;SDS011;6937;56.096;12.664;2022-08-19T06:18:13;13.90;;;12.85;;
13731;SDS011;6937;56.096;12.664;2022-08-19T06:20:39;12.45;;;11.55;;
13731;SDS011;6937;56.096;12.664;2022-08-19T06:23:05;13.00;;;12.10;;
13731;SDS011;6937;56.096;12.664;2022-08-19T06:25:31;11.98;;;11.05;;
13731;SDS011;6937;56.096;12.664;2022-08-19T06:27:56;11.88;;;11.07;;
13731;SDS011;6937;56.096;12.664;2022-08-19T06:30:22;10.48;;;9.80;;
13731;SDS011;6937;56.096;12.664;2022-08-19T06:32:47;12.50;;;11.70;;
13731;SDS011;6937;56.096;12.664;2022-08-19T06:35:13;13.05;;;12.15;;
13731;SDS011;6937;56.096;12.664;2022-08-19T06:37:39;12.90;;;11.80;;
13731;SDS011;6937;56.096;12.664;2022-08-19T06:40:05;13.32;;;12.10;;
13731;SDS011;6937;56.096;12.664;2022-08-19T06:42:33;13.13;;;9.30;;
13731;SDS011;6937;56.096;12.664;2022-08-19T06:45:00;17.33;;;9.90;;
13731;SDS011;6937;56.096;12.664;2022-08-19T06:47:28;11.73;;;10.73;;
13731;SDS011;6937;56.096;12.664;2022-08-19T06:49:56;11.95;;;10.23;;
13731;SDS011;6937;56.096;12.664;2022-08-19T06:52:27;12.68;;;11.68;;
13731;SDS011;6937;56.096;12.664;2022-08-19T06:54:57;11.23;;;10.23;;
13731;SDS011;6937;56.096;12.664;2022-08-19T06:57:23;12.45;;;11.35;;
13731;SDS011;6937;56.096;12.664;2022-08-19T06:59:49;12.65;;;11.65;;
13731;SDS011;6937;56.096;12.664;2022-08-19T07:02:15;13.30;;;12.27;;
13731;SDS011;6937;56.096;12.664;2022-08-19T07:04:40;10.75;;;9.88;;
13731;SDS011;6937;56.096;12.664;2022-08-19T07:07:09;10.85;;;10.05;;
13731;SDS011;6937;56.096;12.664;2022-08-19T07:09:37;10.63;;;9.63;;
13731;SDS011;6937;56.096;12.664;2022-08-19T07:12:07;13.90;;;12.77;;
13731;SDS011;6937;56.096;12.664;2022-08-19T07:14:35;16.88;;;15.57;;
13731;SDS011;6937;56.096;12.664;2022-08-19T07:17:06;12.60;;;11.60;;
13731;SDS011;6937;56.096;12.664;2022-08-19T07:19:32;12.40;;;11.50;;
13731;SDS011;6937;56.096;12.664;2022-08-19T07:22:00;14.73;;;13.55;;
13731;SDS011;6937;56.096;12.664;2022-08-19T07:24:27;16.00;;;14.65;;
13731;SDS011;6937;56.096;12.664;2022-08-19T07:26:54;13.73;;;12.63;;
13731;SDS011;6937;56.096;12.664;2022-08-19T07:29:22;15.18;;;13.77;;
13731;SDS011;6937;56.096;12.664;2022-08-19T07:31:48;17.63;;;16.13;;
13731;SDS011;6937;56.096;12.664;2022-08-19T07:34:15;17.63;;;16.13;;
13731;SDS011;6937;56.096;12.664;2022-08-19T07:36:41;16.80;;;15.50;;
13731;SDS011;6937;56.096;12.664;2022-08-19T07:39:16;17.13;;;15.55;;
13731;SDS011;6937;56.096;12.664;2022-08-19T07:41:44;17.30;;;15.70;;
13731;SDS011;6937;56.096;12.664;2022-08-19T07:44:11;18.13;;;16.63;;
13731;SDS011;6937;56.096;12.664;2022-08-19T07:46:39;17.25;;;15.85;;
13731;SDS011;6937;56.096;12.664;2022-08-19T07:49:06;18.48;;;16.95;;
13731;SDS011;6937;56.096;12.664;2022-08-19T07:51:38;18.02;;;16.35;;
13731;SDS011;6937;56.096;12.664;2022-08-19T07:54:03;20.88;;;19.02;;
13731;SDS011;6937;56.096;12.664;2022-08-19T07:56:29;17.98;;;16.48;;
13731;SDS011;6937;56.096;12.664;2022-08-19T07:58:54;19.45;;;17.75;;
13731;SDS011;6937;56.096;12.664;2022-08-19T08:01:21;19.35;;;17.73;;
13731;SDS011;6937;56.096;12.664;2022-08-19T08:03:49;21.80;;;19.77;;
13731;SDS011;6937;56.096;12.664;2022-08-19T08:06:34;21.75;;;19.60;;
13731;SDS011;6937;56.096;12.664;2022-08-19T08:09:20;20.52;;;18.13;;
13731;SDS011;6937;56.096;12.664;2022-08-19T08:11:51;18.25;;;16.55;;
13731;SDS011;6937;56.096;12.664;2022-08-19T08:14:42;20.98;;;18.80;;
13731;SDS011;6937;56.096;12.664;2022-08-19T08:17:13;18.33;;;16.83;;
13731;SDS011;6937;56.096;12.664;2022-08-19T08:19:41;17.85;;;16.40;;
13731;SDS011;6937;56.096;12.664;2022-08-19T08:22:08;18.33;;;16.92;;
13731;SDS011;6937;56.096;12.664;2022-08-19T08:24:55;17.98;;;16.50;;
13731;SDS011;6937;56.096;12.664;2022-08-19T08:27:23;19.15;;;17.40;;
13731;SDS011;6937;56.096;12.664;2022-08-19T08:29:49;18.92;;;17.27;;
13731;SDS011;6937;56.096;12.664;2022-08-19T08:32:14;19.45;;;17.60;;
13731;SDS011;6937;56.096;12.664;2022-08-19T08:34:40;18.05;;;16.42;;
13731;SDS011;6937;56.096;12.664;2022-08-19T08:37:05;16.23;;;14.80;;
13731;SDS011;6937;56.096;12.664;2022-08-19T08:39:30;15.02;;;13.57;;
13731;SDS011;6937;56.096;12.664;2022-08-19T08:41:58;16.02;;;14.70;;
13731;SDS011;6937;56.096;12.664;2022-08-19T08:44:40;15.65;;;14.35;;
13731;SDS011;6937;56.096;12.664;2022-08-19T08:47:17;14.18;;;13.00;;
13731;SDS011;6937;56.096;12.664;2022-08-19T08:49:53;13.98;;;12.88;;
13731;SDS011;6937;56.096;12.664;2022-08-19T08:52:28;16.63;;;15.30;;
13731;SDS011;6937;56.096;12.664;2022-08-19T08:55:00;15.88;;;14.50;;
13731;SDS011;6937;56.096;12.664;2022-08-19T08:57:44;15.00;;;13.70;;
13731;SDS011;6937;56.096;12.664;2022-08-19T09:00:23;17.70;;;16.13;;
13731;SDS011;6937;56.096;12.664;2022-08-19T09:02:51;14.70;;;13.45;;
13731;SDS011;6937;56.096;12.664;2022-08-19T09:05:19;15.90;;;14.38;;
13731;SDS011;6937;56.096;12.664;2022-08-19T09:11:00;15.38;;;14.07;;
13731;SDS011;6937;56.096;12.664;2022-08-19T09:13:36;13.50;;;12.27;;
13731;SDS011;6937;56.096;12.664;2022-08-19T09:16:07;15.40;;;14.00;;
13731;SDS011;6937;56.096;12.664;2022-08-19T09:18:39;14.27;;;12.98;;
13731;SDS011;6937;56.096;12.664;2022-08-19T09:21:04;15.60;;;14.27;;
13731;SDS011;6937;56.096;12.664;2022-08-19T09:23:30;15.95;;;14.57;;
13731;SDS011;6937;56.096;12.664;2022-08-19T09:25:55;17.38;;;15.82;;
13731;SDS011;6937;56.096;12.664;2022-08-19T09:28:21;13.38;;;12.25;;
13731;SDS011;6937;56.096;12.664;2022-08-19T09:30:46;13.30;;;12.15;;
13731;SDS011;6937;56.096;12.664;2022-08-19T09:33:11;15.18;;;13.77;;
13731;SDS011;6937;56.096;12.664;2022-08-19T09:35:37;13.00;;;12.00;;
13731;SDS011;6937;56.096;12.664;2022-08-19T09:38:02;14.93;;;13.63;;
13731;SDS011;6937;56.096;12.664;2022-08-19T09:40:27;17.50;;;16.00;;
13731;SDS011;6937;56.096;12.664;2022-08-19T09:42:53;18.58;;;16.88;;
13731;SDS011;6937;56.096;12.664;2022-08-19T09:45:20;21.83;;;19.83;;
13731;SDS011;6937;56.096;12.664;2022-08-19T09:47:46;21.42;;;19.40;;
13731;SDS011;6937;56.096;12.664;2022-08-19T09:50:13;18.38;;;16.77;;
13731;SDS011;6937;56.096;12.664;2022-08-19T09:52:38;13.55;;;12.43;;
13731;SDS011;6937;56.096;12.664;2022-08-19T09:55:09;14.40;;;13.18;;
13731;SDS011;6937;56.096;12.664;2022-08-19T09:57:35;17.65;;;16.08;;
13731;SDS011;6937;56.096;12.664;2022-08-19T10:00:02;18.70;;;17.15;;
13731;SDS011;6937;56.096;12.664;2022-08-19T10:02:30;17.08;;;15.63;;
13731;SDS011;6937;56.096;12.664;2022-08-19T10:04:55;17.25;;;15.73;;
13731;SDS011;6937;56.096;12.664;2022-08-19T10:07:39;16.92;;;15.63;;
13731;SDS011;6937;56.096;12.664;2022-08-19T10:10:05;18.27;;;16.77;;
13731;SDS011;6937;56.096;12.664;2022-08-19T10:12:32;18.15;;;16.45;;
13731;SDS011;6937;56.096;12.664;2022-08-19T10:14:58;18.23;;;16.73;;
13731;SDS011;6937;56.096;12.664;2022-08-19T10:17:24;17.15;;;15.77;;
13731;SDS011;6937;56.096;12.664;2022-08-19T10:19:50;17.35;;;15.70;;
13731;SDS011;6937;56.096;12.664;2022-08-19T10:22:16;20.00;;;18.17;;
13731;SDS011;6937;56.096;12.664;2022-08-19T10:24:43;16.52;;;15.20;;
13731;SDS011;6937;56.096;12.664;2022-08-19T10:27:08;19.10;;;17.30;;
13731;SDS011;6937;56.096;12.664;2022-08-19T10:29:34;15.88;;;14.48;;
13731;SDS011;6937;56.096;12.664;2022-08-19T10:32:01;17.85;;;16.33;;
13731;SDS011;6937;56.096;12.664;2022-08-19T10:34:29;17.73;;;16.23;;
13731;SDS011;6937;56.096;12.664;2022-08-19T10:36:56;17.60;;;15.95;;
13731;SDS011;6937;56.096;12.664;2022-08-19T10:39:22;18.38;;;16.50;;
13731;SDS011;6937;56.096;12.664;2022-08-19T10:41:47;19.90;;;18.30;;
13731;SDS011;6937;56.096;12.664;2022-08-19T10:44:14;18.63;;;17.10;;
13731;SDS011;6937;56.096;12.664;2022-08-19T10:46:41;18.88;;;17.17;;
13731;SDS011;6937;56.096;12.664;2022-08-19T10:49:12;18.70;;;17.15;;
13731;SDS011;6937;56.096;12.664;2022-08-19T10:51:41;18.48;;;16.70;;
13731;SDS011;6937;56.096;12.664;2022-08-19T10:54:25;18.13;;;16.60;;
13731;SDS011;6937;56.096;12.664;2022-08-19T10:57:09;19.50;;;17.77;;
13731;SDS011;6937;56.096;12.664;2022-08-19T10:59:35;17.70;;;16.23;;
13731;SDS011;6937;56.096;12.664;2022-08-19T11:02:01;18.73;;;17.13;;
13731;SDS011;6937;56.096;12.664;2022-08-19T11:04:28;16.05;;;14.65;;
13731;SDS011;6937;56.096;12.664;2022-08-19T11:06:54;18.63;;;17.02;;
13731;SDS011;6937;56.096;12.664;2022-08-19T11:09:22;17.77;;;16.17;;
13731;SDS011;6937;56.096;12.664;2022-08-19T11:11:54;16.45;;;15.25;;
13731;SDS011;6937;56.096;12.664;2022-08-19T11:14:21;17.35;;;15.88;;
13731;SDS011;6937;56.096;12.664;2022-08-19T11:16:48;16.67;;;15.05;;
13731;SDS011;6937;56.096;12.664;2022-08-19T11:19:15;15.95;;;14.68;;
13731;SDS011;6937;56.096;12.664;2022-08-19T11:21:44;17.02;;;15.63;;
13731;SDS011;6937;56.096;12.664;2022-08-19T11:24:13;15.98;;;14.63;;
13731;SDS011;6937;56.096;12.664;2022-08-19T11:26:40;13.32;;;12.32;;
13731;SDS011;6937;56.096;12.664;2022-08-19T11:29:08;13.27;;;12.18;;
13731;SDS011;6937;56.096;12.664;2022-08-19T11:31:39;16.08;;;14.68;;
13731;SDS011;6937;56.096;12.664;2022-08-19T11:34:08;12.90;;;11.90;;
13731;SDS011;6937;56.096;12.664;2022-08-19T11:36:36;14.00;;;12.80;;
13731;SDS011;6937;56.096;12.664;2022-08-19T11:39:05;14.73;;;12.43;;
13731;SDS011;6937;56.096;12.664;2022-08-19T11:41:32;13.73;;;12.57;;
13731;SDS011;6937;56.096;12.664;2022-08-19T11:43:57;14.00;;;12.80;;
13731;SDS011;6937;56.096;12.664;2022-08-19T11:46:23;13.45;;;12.27;;
13731;SDS011;6937;56.096;12.664;2022-08-19T11:48:50;12.15;;;11.05;;
13731;SDS011;6937;56.096;12.664;2022-08-19T11:51:18;11.77;;;10.68;;
13731;SDS011;6937;56.096;12.664;2022-08-19T11:53:46;12.60;;;11.60;;
13731;SDS011;6937;56.096;12.664;2022-08-19T11:56:12;11.07;;;10.18;;
13731;SDS011;6937;56.096;12.664;2022-08-19T11:58:37;12.57;;;11.65;;
13731;SDS011;6937;56.096;12.664;2022-08-19T12:01:13;11.55;;;10.60;;
13731;SDS011;6937;56.096;12.664;2022-08-19T12:03:41;13.05;;;11.73;;
13731;SDS011;6937;56.096;12.664;2022-08-19T12:06:09;12.35;;;11.15;;
13731;SDS011;6937;56.096;12.664;2022-08-19T12:08:37;11.88;;;10.98;;
13731;SDS011;6937;56.096;12.664;2022-08-19T12:11:03;12.30;;;11.18;;
13731;SDS011;6937;56.096;12.664;2022-08-19T12:13:30;12.48;;;11.57;;
13731;SDS011;6937;56.096;12.664;2022-08-19T12:15:56;11.00;;;10.10;;
13731;SDS011;6937;56.096;12.664;2022-08-19T12:18:23;11.95;;;10.90;;
13731;SDS011;6937;56.096;12.664;2022-08-19T12:20:52;11.75;;;10.63;;
13731;SDS011;6937;56.096;12.664;2022-08-19T12:23:19;13.35;;;12.02;;
13731;SDS011;6937;56.096;12.664;2022-08-19T12:25:46;12.77;;;11.68;;
13731;SDS011;6937;56.096;12.664;2022-08-19T12:28:17;14.70;;;13.50;;
13731;SDS011;6937;56.096;12.664;2022-08-19T12:30:44;17.77;;;16.27;;
13731;SDS011;6937;56.096;12.664;2022-08-19T12:33:10;16.10;;;14.77;;
13731;SDS011;6937;56.096;12.664;2022-08-19T12:35:35;19.38;;;17.88;;
13731;SDS011;6937;56.096;12.664;2022-08-19T12:38:04;20.77;;;18.95;;
13731;SDS011;6937;56.096;12.664;2022-08-19T12:40:30;19.52;;;17.85;;
13731;SDS011;6937;56.096;12.664;2022-08-19T12:42:55;21.83;;;19.73;;
13731;SDS011;6937;56.096;12.664;2022-08-19T12:45:20;21.10;;;19.20;;
13731;SDS011;6937;56.096;12.664;2022-08-19T12:47:47;18.38;;;16.77;;
13731;SDS011;6937;56.096;12.664;2022-08-19T12:50:13;20.73;;;18.92;;
13731;SDS011;6937;56.096;12.664;2022-08-19T12:52:38;22.95;;;20.88;;
13731;SDS011;6937;56.096;12.664;2022-08-19T12:55:05;22.45;;;20.33;;
13731;SDS011;6937;56.096;12.664;2022-08-19T12:57:31;22.13;;;20.13;;
13731;SDS011;6937;56.096;12.664;2022-08-19T13:00:06;20.67;;;18.65;;
13731;SDS011;6937;56.096;12.664;2022-08-19T13:02:39;22.55;;;20.48;;
13731;SDS011;6937;56.096;12.664;2022-08-19T13:05:06;21.75;;;19.83;;
13731;SDS011;6937;56.096;12.664;2022-08-19T13:07:35;20.13;;;18.23;;
13731;SDS011;6937;56.096;12.664;2022-08-19T13:10:02;22.35;;;20.20;;
13731;SDS011;6937;56.096;12.664;2022-08-19T13:12:28;22.67;;;20.60;;
13731;SDS011;6937;56.096;12.664;2022-08-19T13:14:54;24.45;;;22.05;;
13731;SDS011;6937;56.096;12.664;2022-08-19T13:17:20;27.00;;;24.35;;
13731;SDS011;6937;56.096;12.664;2022-08-19T13:19:45;23.33;;;21.08;;
13731;SDS011;6937;56.096;12.664;2022-08-19T13:22:11;17.02;;;15.63;;
13731;SDS011;6937;56.096;12.664;2022-08-19T13:24:37;17.85;;;16.25;;
13731;SDS011;6937;56.096;12.664;2022-08-19T13:27:03;19.20;;;17.65;;
13731;SDS011;6937;56.096;12.664;2022-08-19T13:29:28;21.08;;;19.27;;
13731;SDS011;6937;56.096;12.664;2022-08-19T13:32:12;19.90;;;18.10;;
13731;SDS011;6937;56.096;12.664;2022-08-19T13:34:56;20.25;;;18.42;;
13731;SDS011;6937;56.096;12.664;2022-08-19T13:37:21;23.05;;;21.05;;
13731;SDS011;6937;56.096;12.664;2022-08-19T13:40:06;22.08;;;20.15;;
13731;SDS011;6937;56.096;12.664;2022-08-19T13:42:33;23.98;;;21.52;;
13731;SDS011;6937;56.096;12.664;2022-08-19T13:44:58;24.27;;;22.13;;
13731;SDS011;6937;56.096;12.664;2022-08-19T13:47:24;25.33;;;23.00;;
13731;SDS011;6937;56.096;12.664;2022-08-19T13:49:50;27.10;;;24.60;;
13731;SDS011;6937;56.096;12.664;2022-08-19T13:52:15;26.42;;;24.00;;
13731;SDS011;6937;56.096;12.664;2022-08-19T13:54:41;27.33;;;24.83;;
13731;SDS011;6937;56.096;12.664;2022-08-19T13:57:06;27.75;;;25.13;;
13731;SDS011;6937;56.096;12.664;2022-08-19T13:59:32;27.83;;;25.02;;
13731;SDS011;6937;56.096;12.664;2022-08-19T14:01:58;29.00;;;26.30;;
13731;SDS011;6937;56.096;12.664;2022-08-19T14:04:24;30.40;;;27.58;;
13731;SDS011;6937;56.096;12.664;2022-08-19T14:06:50;28.63;;;25.95;;
13731;SDS011;6937;56.096;12.664;2022-08-19T14:09:15;29.92;;;27.02;;
13731;SDS011;6937;56.096;12.664;2022-08-19T14:11:40;28.83;;;25.75;;
13731;SDS011;6937;56.096;12.664;2022-08-19T14:14:06;25.90;;;23.48;;
13731;SDS011;6937;56.096;12.664;2022-08-19T14:16:31;24.23;;;22.02;;
13731;SDS011;6937;56.096;12.664;2022-08-19T14:18:57;22.88;;;20.92;;
13731;SDS011;6937;56.096;12.664;2022-08-19T14:21:23;22.52;;;20.45;;
13731;SDS011;6937;56.096;12.664;2022-08-19T14:23:50;23.25;;;21.25;;
13731;SDS011;6937;56.096;12.664;2022-08-19T14:26:17;21.67;;;19.77;;
13731;SDS011;6937;56.096;12.664;2022-08-19T14:28:44;19.80;;;18.00;;